Time;durP1;ratioP1;P1;durP2;ratioP2;P2;SDS_P1;SDS_P2;PMS_P1;PMS_P2;Temp;Humidity;BMP_temperature;BMP_pressure;BME280_temperature;BME280_humidity;BME280_pressure;Samples;Min_cycle;Max_cycle;Signal;HPM_P1;HPM_P2
2023/10/29 00:01:04;;;;;;;6.17;4.20;;;;;;;;;;5053773;28;20078;-57
2023/10/29 00:03:29;;;;;;;6.20;2.83;;;;;;;;;;5072022;28;20020;-59
2023/10/29 00:05:55;;;;;;;6.47;2.93;;;;;;;;;;5071979;28;20506;-58
2023/10/29 00:08:20;;;;;;;5.38;2.38;;;;;;;;;;5063273;28;20021;-59
2023/10/29 00:10:46;;;;;;;6.87;2.80;;;;;;;;;;5056929;28;20044;-59
2023/10/29 00:13:12;;;;;;;6.10;2.60;;;;;;;;;;5044757;28;20466;-58
2023/10/29 00:15:38;;;;;;;5.32;2.67;;;;;;;;;;5045263;28;20119;-58
2023/10/29 00:18:08;;;;;;;6.35;2.35;;;;;;;;;;5050567;28;20025;-57
2023/10/29 00:20:34;;;;;;;6.30;2.88;;;;;;;;;;5061806;28;20098;-58
2023/10/29 00:22:59;;;;;;;7.43;6.38;;;;;;;;;;5055262;28;20017;-58
2023/10/29 00:25:24;;;;;;;10.50;9.50;;;;;;;;;;5049319;28;20401;-57
2023/10/29 00:27:49;;;;;;;7.55;2.67;;;;;;;;;;5058422;28;20419;-58
2023/10/29 00:30:14;;;;;;;5.43;2.00;;;;;;;;;;5052972;28;20029;-60
2023/10/29 00:32:40;;;;;;;7.93;2.50;;;;;;;;;;5034391;28;20072;-59
2023/10/29 00:35:07;;;;;;;9.50;2.70;;;;;;;;;;5063764;28;20032;-57
2023/10/29 00:37:32;;;;;;;6.40;2.38;;;;;;;;;;5054989;28;20017;-58
2023/10/29 00:39:57;;;;;;;5.47;2.37;;;;;;;;;;5049242;28;20024;-58
2023/10/29 00:42:23;;;;;;;7.50;5.63;;;;;;;;;;5054035;28;20052;-56
2023/10/29 00:44:48;;;;;;;6.00;2.72;;;;;;;;;;5052669;28;20112;-59
2023/10/29 00:47:14;;;;;;;7.65;2.00;;;;;;;;;;5079536;28;20040;-59
2023/10/29 00:49:40;;;;;;;5.72;2.58;;;;;;;;;;5078788;28;20073;-59
2023/10/29 00:52:05;;;;;;;7.07;1.80;;;;;;;;;;5064668;28;20037;-59
2023/10/29 00:54:31;;;;;;;6.30;2.13;;;;;;;;;;5059401;28;20040;-59
2023/10/29 00:56:56;;;;;;;6.10;2.00;;;;;;;;;;5060636;28;20013;-58
2023/10/29 00:59:21;;;;;;;4.97;1.98;;;;;;;;;;5052276;28;20099;-58
2023/10/29 01:01:47;;;;;;;10.93;9.57;;;;;;;;;;5058586;28;20067;-58
2023/10/29 01:04:12;;;;;;;7.40;2.03;;;;;;;;;;5065934;28;20025;-59
2023/10/29 01:06:40;;;;;;;5.30;1.77;;;;;;;;;;5063857;28;20048;-58
2023/10/29 01:09:06;;;;;;;7.85;4.43;;;;;;;;;;5050966;28;20029;-58
2023/10/29 01:11:32;;;;;;;7.57;2.90;;;;;;;;;;5049577;28;20021;-59
2023/10/29 01:13:57;;;;;;;6.60;2.03;;;;;;;;;;5050531;28;20885;-58
2023/10/29 01:16:22;;;;;;;5.83;2.00;;;;;;;;;;5056414;28;20052;-58
2023/10/29 01:18:48;;;;;;;6.88;2.00;;;;;;;;;;5057859;28;20045;-58
2023/10/29 01:21:13;;;;;;;7.83;2.50;;;;;;;;;;5059539;28;20060;-58
2023/10/29 01:23:38;;;;;;;8.10;4.10;;;;;;;;;;5049625;28;20175;-59
2023/10/29 01:26:04;;;;;;;7.63;2.37;;;;;;;;;;5048999;28;20062;-57
2023/10/29 01:28:30;;;;;;;6.18;2.10;;;;;;;;;;5051361;28;20053;-58
2023/10/29 01:30:56;;;;;;;5.95;1.88;;;;;;;;;;5052536;28;20021;-59
2023/10/29 01:33:21;;;;;;;8.73;2.10;;;;;;;;;;5043384;28;20048;-58
2023/10/29 01:35:46;;;;;;;6.53;2.20;;;;;;;;;;5061514;28;20053;-58
2023/10/29 01:38:11;;;;;;;7.07;1.90;;;;;;;;;;5056604;28;20485;-57
2023/10/29 01:40:36;;;;;;;5.83;1.80;;;;;;;;;;5050872;28;20021;-56
2023/10/29 01:43:02;;;;;;;5.90;1.57;;;;;;;;;;5065450;28;20067;-57
2023/10/29 01:45:27;;;;;;;4.57;1.50;;;;;;;;;;5066987;28;20531;-58
2023/10/29 01:47:52;;;;;;;7.47;1.95;;;;;;;;;;5056393;28;20009;-58
2023/10/29 01:50:17;;;;;;;8.57;2.20;;;;;;;;;;5051361;28;20119;-58
2023/10/29 01:52:42;;;;;;;7.17;2.23;;;;;;;;;;5056090;28;20078;-59
2023/10/29 01:55:08;;;;;;;8.35;2.08;;;;;;;;;;5048416;28;20447;-57
2023/10/29 01:57:34;;;;;;;15.43;14.05;;;;;;;;;;5047731;28;20044;-59
2023/10/29 01:59:59;;;;;;;9.95;2.20;;;;;;;;;;5047179;28;20018;-59
2023/10/29 02:02:24;;;;;;;9.10;1.87;;;;;;;;;;5050236;28;20058;-59
2023/10/29 02:04:50;;;;;;;8.13;1.80;;;;;;;;;;5050594;28;20029;-58
2023/10/29 02:07:15;;;;;;;5.73;1.90;;;;;;;;;;5062373;28;20012;-58
2023/10/29 02:09:40;;;;;;;6.43;3.60;;;;;;;;;;5062345;28;20419;-59
2023/10/29 02:12:05;;;;;;;15.20;13.83;;;;;;;;;;5057058;28;20036;-58
2023/10/29 02:14:32;;;;;;;7.05;1.85;;;;;;;;;;5042218;28;20493;-58
2023/10/29 02:16:57;;;;;;;;;;;;;;;;;;5051758;28;20107;-58
2023/10/29 02:19:22;;;;;;;5.43;1.60;;;;;;;;;;5054740;28;19993;-59
2023/10/29 02:21:47;;;;;;;7.60;1.60;;;;;;;;;;5050248;28;20030;-59
2023/10/29 02:24:14;;;;;;;7.60;3.17;;;;;;;;;;5061414;28;20461;-59
2023/10/29 02:26:39;;;;;;;6.45;1.65;;;;;;;;;;5058319;28;20369;-59
2023/10/29 02:29:04;;;;;;;6.53;1.92;;;;;;;;;;5050501;28;20100;-59
2023/10/29 02:31:30;;;;;;;5.70;1.67;;;;;;;;;;5061602;28;20501;-59
2023/10/29 02:33:55;;;;;;;4.77;2.90;;;;;;;;;;5052532;28;20399;-58
2023/10/29 02:36:20;;;;;;;6.82;2.38;;;;;;;;;;5065929;28;20029;-58
2023/10/29 02:38:46;;;;;;;5.43;1.90;;;;;;;;;;5066285;28;20013;-58
2023/10/29 02:41:11;;;;;;;5.50;1.67;;;;;;;;;;5052318;28;20480;-58
2023/10/29 02:43:43;;;;;;;10.55;9.63;;;;;;;;;;5061759;28;20049;-57
2023/10/29 02:46:08;;;;;;;6.15;1.75;;;;;;;;;;5062176;28;20024;-57
2023/10/29 02:48:34;;;;;;;7.88;2.08;;;;;;;;;;5058339;28;20073;-59
2023/10/29 02:50:59;;;;;;;7.27;1.97;;;;;;;;;;5062266;28;20159;-58
2023/10/29 02:53:24;;;;;;;4.53;1.60;;;;;;;;;;5063609;28;20044;-58
2023/10/29 02:55:49;;;;;;;8.80;4.60;;;;;;;;;;5054259;28;20473;-61
2023/10/29 02:58:14;;;;;;;7.13;2.10;;;;;;;;;;5059417;28;20044;-60
2023/10/29 03:00:40;;;;;;;5.90;1.73;;;;;;;;;;5060309;28;20082;-59
2023/10/29 03:03:05;;;;;;;7.65;2.53;;;;;;;;;;5065536;28;20025;-58
2023/10/29 03:05:30;;;;;;;7.53;1.75;;;;;;;;;;5058408;28;20075;-59
2023/10/29 03:07:56;;;;;;;5.03;1.42;;;;;;;;;;5056903;28;20056;-59
2023/10/29 03:10:21;;;;;;;6.13;1.88;;;;;;;;;;5068547;28;20028;-59
2023/10/29 03:12:47;;;;;;;5.70;3.20;;;;;;;;;;5053079;28;20070;-58
2023/10/29 03:15:12;;;;;;;6.53;1.50;;;;;;;;;;5045618;28;20033;-59
2023/10/29 03:17:37;;;;;;;5.43;1.40;;;;;;;;;;5058460;28;20028;-58
2023/10/29 03:20:03;;;;;;;7.77;1.63;;;;;;;;;;5054765;28;20074;-58
2023/10/29 03:22:28;;;;;;;5.97;1.65;;;;;;;;;;5062118;28;20826;-59
2023/10/29 03:24:53;;;;;;;7.03;1.20;;;;;;;;;;5068827;28;20025;-57
2023/10/29 03:27:18;;;;;;;6.10;1.43;;;;;;;;;;5065334;28;20056;-58
2023/10/29 03:29:43;;;;;;;6.67;2.07;;;;;;;;;;5054186;28;20025;-58
2023/10/29 03:32:09;;;;;;;6.50;1.40;;;;;;;;;;5051634;28;20078;-59
2023/10/29 03:34:34;;;;;;;6.27;1.60;;;;;;;;;;5062229;28;20017;-57
2023/10/29 03:36:59;;;;;;;6.85;1.90;;;;;;;;;;5038818;28;20108;-58
2023/10/29 03:39:24;;;;;;;6.03;1.93;;;;;;;;;;5046515;28;20028;-59
2023/10/29 03:41:49;;;;;;;7.93;1.88;;;;;;;;;;5055192;28;20033;-58
2023/10/29 03:44:15;;;;;;;6.70;2.07;;;;;;;;;;5065432;28;20028;-59
2023/10/29 03:46:40;;;;;;;6.07;3.60;;;;;;;;;;5076543;28;20078;-59
2023/10/29 03:49:06;;;;;;;17.63;16.10;;;;;;;;;;5067013;28;20028;-58
2023/10/29 03:51:31;;;;;;;5.22;3.35;;;;;;;;;;5072720;28;20434;-57
2023/10/29 03:53:56;;;;;;;6.83;2.00;;;;;;;;;;5066153;28;20021;-58
2023/10/29 03:56:21;;;;;;;4.97;1.30;;;;;;;;;;5058917;28;20508;-58
2023/10/29 03:58:46;;;;;;;6.00;1.90;;;;;;;;;;5082923;28;20029;-60
2023/10/29 04:01:12;;;;;;;4.70;1.35;;;;;;;;;;5059601;28;20353;-59
2023/10/29 04:03:37;;;;;;;4.22;2.00;;;;;;;;;;5061428;28;20500;-59
2023/10/29 04:06:06;;;;;;;22.10;19.92;;;;;;;;;;5052424;28;20056;-59
2023/10/29 04:08:32;;;;;;;21.20;19.48;;;;;;;;;;5052964;28;20032;-58
2023/10/29 04:10:57;;;;;;;6.15;3.38;;;;;;;;;;5056372;28;20028;-58
2023/10/29 04:13:22;;;;;;;14.03;12.73;;;;;;;;;;5040857;28;20033;-57
2023/10/29 04:15:47;;;;;;;7.43;1.50;;;;;;;;;;5063132;28;20028;-58
2023/10/29 04:18:12;;;;;;;5.83;2.53;;;;;;;;;;5062412;28;20107;-56
2023/10/29 04:20:39;;;;;;;6.18;1.90;;;;;;;;;;5060414;28;20107;-58
2023/10/29 04:23:04;;;;;;;4.20;1.40;;;;;;;;;;5052250;28;20029;-59
2023/10/29 04:25:29;;;;;;;6.40;1.50;;;;;;;;;;5051417;28;20386;-59
2023/10/29 04:27:54;;;;;;;7.17;2.60;;;;;;;;;;5050345;28;20032;-59
2023/10/29 04:30:19;;;;;;;6.03;1.50;;;;;;;;;;5061763;28;20099;-57
2023/10/29 04:32:45;;;;;;;6.20;1.50;;;;;;;;;;5057182;28;20092;-58
2023/10/29 04:35:10;;;;;;;6.22;3.75;;;;;;;;;;5063983;28;20024;-58
2023/10/29 04:37:35;;;;;;;5.63;1.47;;;;;;;;;;5065191;28;20408;-57
2023/10/29 04:40:01;;;;;;;5.35;2.50;;;;;;;;;;5050546;28;20017;-58
2023/10/29 04:42:26;;;;;;;5.90;1.40;;;;;;;;;;5052968;28;20709;-57
2023/10/29 04:44:51;;;;;;;5.80;1.40;;;;;;;;;;5047723;28;20017;-59
2023/10/29 04:47:16;;;;;;;3.90;1.40;;;;;;;;;;5060540;28;20270;-59
2023/10/29 04:49:43;;;;;;;5.40;1.70;;;;;;;;;;5060781;28;20028;-59
2023/10/29 04:52:08;;;;;;;7.90;5.97;;;;;;;;;;5055568;28;20063;-58
2023/10/29 04:54:33;;;;;;;6.03;1.80;;;;;;;;;;5051062;28;20048;-58
2023/10/29 04:56:58;;;;;;;6.37;2.07;;;;;;;;;;5069205;28;20040;-57
2023/10/29 04:59:24;;;;;;;4.63;1.27;;;;;;;;;;5068088;28;20062;-59
2023/10/29 05:01:50;;;;;;;5.55;1.75;;;;;;;;;;5064980;28;20028;-60
2023/10/29 05:04:15;;;;;;;5.43;1.58;;;;;;;;;;5056133;28;20032;-58
2023/10/29 05:06:41;;;;;;;5.43;1.20;;;;;;;;;;5047751;28;20024;-58
2023/10/29 05:09:06;;;;;;;4.10;2.10;;;;;;;;;;5051077;28;20100;-59
2023/10/29 05:11:31;;;;;;;7.03;5.25;;;;;;;;;;5050433;28;20021;-58
2023/10/29 05:13:57;;;;;;;12.23;11.17;;;;;;;;;;5033300;28;20083;-58
2023/10/29 05:16:22;;;;;;;8.55;7.70;;;;;;;;;;5037869;28;20545;-59
2023/10/29 05:18:47;;;;;;;28.73;26.58;;;;;;;;;;5050567;28;20032;-59
2023/10/29 05:21:13;;;;;;;4.27;1.93;;;;;;;;;;5050114;28;20032;-60
2023/10/29 05:23:38;;;;;;;4.30;1.20;;;;;;;;;;5051106;28;20036;-59
2023/10/29 05:26:03;;;;;;;4.43;1.05;;;;;;;;;;5051179;28;20382;-59
2023/10/29 05:28:29;;;;;;;4.80;1.42;;;;;;;;;;5054164;28;20392;-58
2023/10/29 05:30:54;;;;;;;5.03;1.07;;;;;;;;;;5050987;28;20024;-57
2023/10/29 05:33:20;;;;;;;4.60;2.80;;;;;;;;;;5052463;28;20033;-57
2023/10/29 05:35:45;;;;;;;6.00;5.28;;;;;;;;;;5055456;28;20027;-59
2023/10/29 05:38:12;;;;;;;3.83;1.27;;;;;;;;;;5056586;28;20077;-58
2023/10/29 05:40:37;;;;;;;8.25;7.45;;;;;;;;;;5055824;28;20451;-58
2023/10/29 05:43:02;;;;;;;4.93;1.77;;;;;;;;;;5055250;28;20091;-57
2023/10/29 05:45:28;;;;;;;6.97;2.90;;;;;;;;;;5053654;28;20009;-59
2023/10/29 05:47:55;;;;;;;3.40;1.25;;;;;;;;;;5062377;28;20077;-58
2023/10/29 05:50:20;;;;;;;20.00;18.25;;;;;;;;;;5060116;28;20021;-58
2023/10/29 05:52:46;;;;;;;4.87;1.27;;;;;;;;;;5048323;28;20476;-58
2023/10/29 05:55:12;;;;;;;6.15;5.00;;;;;;;;;;5040114;28;20029;-57
2023/10/29 05:57:37;;;;;;;6.25;3.33;;;;;;;;;;5060159;28;20028;-59
2023/10/29 06:00:04;;;;;;;4.00;1.33;;;;;;;;;;5046514;28;20017;-58
2023/10/29 06:02:29;;;;;;;3.50;1.00;;;;;;;;;;5051328;28;20021;-58
2023/10/29 06:04:54;;;;;;;4.65;1.30;;;;;;;;;;5053746;28;20016;-57
2023/10/29 06:07:19;;;;;;;6.60;1.03;;;;;;;;;;5055221;28;20021;-58
2023/10/29 06:09:45;;;;;;;9.90;5.90;;;;;;;;;;5060647;28;20017;-59
2023/10/29 06:12:10;;;;;;;17.83;16.53;;;;;;;;;;5058777;28;20028;-59
2023/10/29 06:14:35;;;;;;;3.83;1.60;;;;;;;;;;5051084;28;20456;-60
2023/10/29 06:17:00;;;;;;;3.93;1.63;;;;;;;;;;5040712;28;20104;-56
2023/10/29 06:19:26;;;;;;;9.27;7.85;;;;;;;;;;5049248;28;20024;-58
2023/10/29 06:21:51;;;;;;;6.63;4.77;;;;;;;;;;5045014;28;20067;-62
2023/10/29 06:24:16;;;;;;;4.60;1.53;;;;;;;;;;5048659;28;20415;-59
2023/10/29 06:26:42;;;;;;;7.05;6.47;;;;;;;;;;5050848;28;20025;-59
2023/10/29 06:29:08;;;;;;;5.23;1.70;;;;;;;;;;5050549;28;20032;-57
2023/10/29 06:31:34;;;;;;;10.20;9.30;;;;;;;;;;5049762;28;20388;-58
2023/10/29 06:33:59;;;;;;;5.57;2.28;;;;;;;;;;5047304;28;20032;-59
2023/10/29 06:36:24;;;;;;;11.35;9.95;;;;;;;;;;5056731;28;20238;-60
2023/10/29 06:38:49;;;;;;;8.07;5.37;;;;;;;;;;5060161;28;20025;-59
2023/10/29 06:41:15;;;;;;;15.70;14.45;;;;;;;;;;5061324;28;20090;-58
2023/10/29 06:43:40;;;;;;;7.67;7.03;;;;;;;;;;5054776;28;20048;-59
2023/10/29 06:46:05;;;;;;;5.30;3.03;;;;;;;;;;5061399;28;20020;-59
2023/10/29 06:48:30;;;;;;;5.30;3.03;;;;;;;;;;5059939;28;20111;-58
2023/10/29 06:50:55;;;;;;;4.90;1.30;;;;;;;;;;5069368;28;20021;-58
2023/10/29 06:53:20;;;;;;;4.93;2.87;;;;;;;;;;5069915;28;20481;-59
2023/10/29 06:55:46;;;;;;;20.37;18.77;;;;;;;;;;5047544;28;20029;-59
2023/10/29 06:58:11;;;;;;;3.80;2.10;;;;;;;;;;5060757;28;20040;-58
2023/10/29 07:00:36;;;;;;;5.10;3.13;;;;;;;;;;5063738;28;20020;-58
2023/10/29 07:03:01;;;;;;;4.23;1.20;;;;;;;;;;5052916;28;20111;-59
2023/10/29 07:05:27;;;;;;;7.47;5.32;;;;;;;;;;5056468;28;20290;-58
2023/10/29 07:07:52;;;;;;;15.13;13.97;;;;;;;;;;5052296;28;20599;-57
2023/10/29 07:10:18;;;;;;;13.73;12.30;;;;;;;;;;5048521;28;20017;-59
2023/10/29 07:12:43;;;;;;;7.43;5.70;;;;;;;;;;5054095;28;20021;-59
2023/10/29 07:15:09;;;;;;;5.23;3.03;;;;;;;;;;5053706;28;20067;-59
2023/10/29 07:17:34;;;;;;;;;;;;;;;;;;5056645;28;20033;-58
2023/10/29 07:20:00;;;;;;;4.57;2.15;;;;;;;;;;5047495;28;19921;-58
2023/10/29 07:22:25;;;;;;;7.00;6.40;;;;;;;;;;5042119;28;20138;-58
2023/10/29 07:24:50;;;;;;;8.50;7.07;;;;;;;;;;5041273;28;20032;-59
2023/10/29 07:27:15;;;;;;;31.42;28.60;;;;;;;;;;5048343;28;20186;-58
2023/10/29 07:29:40;;;;;;;9.80;9.00;;;;;;;;;;5052295;28;20017;-59
2023/10/29 07:32:05;;;;;;;6.43;5.07;;;;;;;;;;5052398;28;20465;-57
2023/10/29 07:34:31;;;;;;;8.67;7.83;;;;;;;;;;5049967;28;20021;-57
2023/10/29 07:36:56;;;;;;;12.43;11.57;;;;;;;;;;5053264;28;20471;-59
2023/10/29 07:39:21;;;;;;;5.23;1.10;;;;;;;;;;5053078;28;20365;-59
2023/10/29 07:41:46;;;;;;;7.43;6.30;;;;;;;;;;5054077;28;20031;-58
2023/10/29 07:44:11;;;;;;;8.10;6.90;;;;;;;;;;5052960;28;20098;-59
2023/10/29 07:46:37;;;;;;;10.83;10.03;;;;;;;;;;5054484;28;20021;-58
2023/10/29 07:49:02;;;;;;;4.88;1.15;;;;;;;;;;5046151;28;20100;-57
2023/10/29 07:51:28;;;;;;;7.45;5.40;;;;;;;;;;5049656;28;20033;-58
2023/10/29 07:53:54;;;;;;;10.55;9.65;;;;;;;;;;5049269;28;20142;-59
2023/10/29 07:56:20;;;;;;;7.68;6.82;;;;;;;;;;5042644;28;20072;-59
2023/10/29 07:58:46;;;;;;;6.47;4.45;;;;;;;;;;5039353;28;20061;-58
2023/10/29 08:01:12;;;;;;;5.90;2.30;;;;;;;;;;5051623;28;20045;-58
2023/10/29 08:03:38;;;;;;;14.30;13.10;;;;;;;;;;5049980;28;20117;-60
2023/10/29 08:06:03;;;;;;;9.20;8.43;;;;;;;;;;5050312;28;20017;-58
2023/10/29 08:08:29;;;;;;;3.90;1.48;;;;;;;;;;5052239;28;20421;-58
2023/10/29 08:10:54;;;;;;;3.47;1.20;;;;;;;;;;5045892;28;20028;-59
2023/10/29 08:13:19;;;;;;;6.07;2.63;;;;;;;;;;5055542;28;21010;-59
2023/10/29 08:15:44;;;;;;;24.87;23.03;;;;;;;;;;5053703;28;20067;-58
2023/10/29 08:18:10;;;;;;;6.83;6.23;;;;;;;;;;5052748;28;20021;-57
2023/10/29 08:20:35;;;;;;;18.48;17.15;;;;;;;;;;5045118;28;20451;-59
2023/10/29 08:23:00;;;;;;;5.70;5.13;;;;;;;;;;5044574;28;20048;-58
2023/10/29 08:25:26;;;;;;;5.07;2.20;;;;;;;;;;5047356;28;20021;-56
2023/10/29 08:27:51;;;;;;;8.15;2.60;;;;;;;;;;5041644;28;20375;-59
2023/10/29 08:30:16;;;;;;;5.47;1.13;;;;;;;;;;5047545;28;20025;-57
2023/10/29 08:32:41;;;;;;;20.37;19.07;;;;;;;;;;5048695;28;20025;-57
2023/10/29 08:35:07;;;;;;;5.87;1.17;;;;;;;;;;5053850;28;20028;-58
2023/10/29 08:37:34;;;;;;;7.95;6.30;;;;;;;;;;5045010;28;20048;-57
2023/10/29 08:39:59;;;;;;;5.25;2.13;;;;;;;;;;5052253;28;20191;-57
2023/10/29 08:42:26;;;;;;;4.50;1.33;;;;;;;;;;5051778;28;20071;-58
2023/10/29 08:44:56;;;;;;;21.50;20.00;;;;;;;;;;5053003;28;20362;-58
2023/10/29 08:47:21;;;;;;;4.88;1.92;;;;;;;;;;5053601;28;20020;-59
2023/10/29 08:49:46;;;;;;;7.70;6.80;;;;;;;;;;5051957;28;20017;-59
2023/10/29 08:52:13;;;;;;;3.47;1.33;;;;;;;;;;5052801;28;20025;-59
2023/10/29 08:54:39;;;;;;;8.10;7.35;;;;;;;;;;5050666;28;20021;-58
2023/10/29 08:57:05;;;;;;;7.43;4.10;;;;;;;;;;5053674;28;20017;-59
2023/10/29 08:59:31;;;;;;;8.13;3.05;;;;;;;;;;5051551;28;20041;-58
2023/10/29 09:01:57;;;;;;;17.13;15.75;;;;;;;;;;5036018;28;20033;-58
2023/10/29 09:04:23;;;;;;;8.43;7.63;;;;;;;;;;5048489;28;20044;-58
2023/10/29 09:06:48;;;;;;;35.87;33.50;;;;;;;;;;5039905;28;20033;-58
2023/10/29 09:09:13;;;;;;;5.68;2.67;;;;;;;;;;5050687;28;20013;-58
2023/10/29 09:11:39;;;;;;;7.00;2.33;;;;;;;;;;5037509;28;20024;-58
2023/10/29 09:14:07;;;;;;;8.90;8.07;;;;;;;;;;5049813;28;20020;-57
2023/10/29 09:16:32;;;;;;;8.82;3.83;;;;;;;;;;5042845;28;20409;-58
2023/10/29 09:18:57;;;;;;;10.20;9.20;;;;;;;;;;5050574;28;20021;-59
2023/10/29 09:21:23;;;;;;;39.10;36.22;;;;;;;;;;5050007;28;20036;-57
2023/10/29 09:23:48;;;;;;;9.63;8.73;;;;;;;;;;5050576;28;20465;-58
2023/10/29 09:26:13;;;;;;;11.87;10.63;;;;;;;;;;5048698;28;20503;-58
2023/10/29 09:28:38;;;;;;;7.67;6.57;;;;;;;;;;5047421;28;20021;-59
2023/10/29 09:31:04;;;;;;;23.13;21.52;;;;;;;;;;5047940;28;20029;-57
2023/10/29 09:33:29;;;;;;;7.13;5.53;;;;;;;;;;5051008;28;20013;-58
2023/10/29 09:35:54;;;;;;;36.57;34.33;;;;;;;;;;5050627;28;20021;-59
2023/10/29 09:38:20;;;;;;;5.45;3.40;;;;;;;;;;5049557;28;20061;-57
2023/10/29 09:40:46;;;;;;;12.07;11.13;;;;;;;;;;5050055;28;20329;-57
2023/10/29 09:43:11;;;;;;;;;;;;;;;;;;5049221;28;20031;-57
2023/10/29 09:45:45;;;;;;;10.40;6.28;;;;;;;;;;5038338;28;19909;-58
2023/10/29 09:48:11;;;;;;;10.00;8.88;;;;;;;;;;5030514;28;20018;-59
2023/10/29 09:50:36;;;;;;;15.80;14.45;;;;;;;;;;5030023;28;20026;-58
2023/10/29 09:53:03;;;;;;;24.43;22.87;;;;;;;;;;5043970;28;20178;-58
2023/10/29 09:55:29;;;;;;;48.33;45.20;;;;;;;;;;5049017;28;20047;-59
2023/10/29 09:57:54;;;;;;;10.63;9.70;;;;;;;;;;5050260;28;20021;-58
2023/10/29 10:00:19;;;;;;;8.37;6.07;;;;;;;;;;5050066;28;20028;-57
2023/10/29 10:02:48;;;;;;;16.83;15.57;;;;;;;;;;5050639;28;20036;-58
2023/10/29 10:05:15;;;;;;;16.33;15.15;;;;;;;;;;5049961;28;20469;-59
2023/10/29 10:07:40;;;;;;;4.82;1.45;;;;;;;;;;5043241;28;20040;-57
2023/10/29 10:10:06;;;;;;;27.53;25.53;;;;;;;;;;5041597;28;20469;-58
2023/10/29 10:12:31;;;;;;;8.40;7.60;;;;;;;;;;5050238;28;20021;-59
2023/10/29 10:15:06;;;;;;;13.37;12.37;;;;;;;;;;5050523;28;20693;-60
2023/10/29 10:17:31;;;;;;;9.45;8.65;;;;;;;;;;5050241;28;20441;-58
2023/10/29 10:20:06;;;;;;;10.30;9.50;;;;;;;;;;5049153;28;20064;-58
2023/10/29 10:22:33;;;;;;;7.55;4.28;;;;;;;;;;5047885;28;20025;-57
2023/10/29 10:24:58;;;;;;;5.15;1.35;;;;;;;;;;5050601;28;20039;-58
2023/10/29 10:27:23;;;;;;;5.53;2.83;;;;;;;;;;5048681;28;20455;-58
2023/10/29 10:29:50;;;;;;;12.60;11.50;;;;;;;;;;5052751;28;20021;-58
2023/10/29 10:32:21;;;;;;;4.20;1.38;;;;;;;;;;5052911;28;20397;-59
2023/10/29 10:34:50;;;;;;;14.40;10.60;;;;;;;;;;5050313;28;20384;-58
2023/10/29 10:37:16;;;;;;;5.95;3.25;;;;;;;;;;5048954;28;20639;-59
2023/10/29 10:39:41;;;;;;;10.07;9.00;;;;;;;;;;5049555;28;20027;-59
2023/10/29 10:42:07;;;;;;;5.25;2.13;;;;;;;;;;5046676;28;20085;-58
2023/10/29 10:44:34;;;;;;;3.50;1.40;;;;;;;;;;5049708;28;20025;-58
2023/10/29 10:46:59;;;;;;;5.00;2.50;;;;;;;;;;5038592;28;20498;-57
2023/10/29 10:49:26;;;;;;;4.50;1.75;;;;;;;;;;5048343;28;20115;-58
2023/10/29 10:51:54;;;;;;;31.77;29.95;;;;;;;;;;5047869;28;20104;-58
2023/10/29 10:54:19;;;;;;;6.03;5.00;;;;;;;;;;5049881;28;20385;-58
2023/10/29 10:56:45;;;;;;;5.18;1.98;;;;;;;;;;5050017;28;20021;-59
2023/10/29 10:59:10;;;;;;;5.90;5.28;;;;;;;;;;5048528;28;20381;-59
2023/10/29 11:01:36;;;;;;;5.17;2.10;;;;;;;;;;5053084;28;20036;-58
2023/10/29 11:04:03;;;;;;;4.72;3.40;;;;;;;;;;5045982;28;20017;-58
2023/10/29 11:06:28;;;;;;;26.60;24.98;;;;;;;;;;5053253;28;20417;-59
2023/10/29 11:08:54;;;;;;;7.47;6.88;;;;;;;;;;5059249;28;20082;-59
2023/10/29 11:11:20;;;;;;;4.43;1.58;;;;;;;;;;5065073;28;20024;-59
2023/10/29 11:13:45;;;;;;;5.25;3.28;;;;;;;;;;5048281;28;20018;-58
2023/10/29 11:16:26;;;;;;;5.30;3.30;;;;;;;;;;5051964;28;20025;-59
2023/10/29 11:18:51;;;;;;;11.07;10.20;;;;;;;;;;5043687;28;20108;-59
2023/10/29 11:21:30;;;;;;;5.90;1.20;;;;;;;;;;5036680;28;20445;-59
2023/10/29 11:24:15;;;;;;;7.47;6.78;;;;;;;;;;5040564;28;20082;-58
2023/10/29 11:26:40;;;;;;;7.03;6.30;;;;;;;;;;5049112;28;20143;-57
2023/10/29 11:29:05;;;;;;;10.35;9.60;;;;;;;;;;5048364;28;20036;-59
2023/10/29 11:31:30;;;;;;;5.10;1.30;;;;;;;;;;5048479;28;20028;-58
2023/10/29 11:33:55;;;;;;;5.80;5.10;;;;;;;;;;5050976;28;20023;-57
2023/10/29 11:36:34;;;;;;;4.75;2.70;;;;;;;;;;5046388;28;20021;-59
2023/10/29 11:39:22;;;;;;;8.05;2.95;;;;;;;;;;5046096;28;20148;-59
2023/10/29 11:41:48;;;;;;;33.20;31.33;;;;;;;;;;5041327;28;20491;-58
2023/10/29 11:44:28;;;;;;;5.10;3.17;;;;;;;;;;5051942;28;20108;-59
2023/10/29 11:46:56;;;;;;;18.02;16.95;;;;;;;;;;5043979;28;20100;-58
2023/10/29 11:49:21;;;;;;;5.88;3.03;;;;;;;;;;5044325;28;20043;-58
2023/10/29 11:51:54;;;;;;;19.42;18.25;;;;;;;;;;5046767;28;20025;-58
2023/10/29 11:54:19;;;;;;;4.53;1.33;;;;;;;;;;5056817;28;20082;-58
2023/10/29 11:56:45;;;;;;;13.90;12.85;;;;;;;;;;5053328;28;20037;-60
2023/10/29 11:59:10;;;;;;;5.78;4.20;;;;;;;;;;5040856;28;20021;-58
2023/10/29 12:01:35;;;;;;;5.60;5.07;;;;;;;;;;5046864;28;20029;-57
2023/10/29 12:04:01;;;;;;;6.18;5.05;;;;;;;;;;5060871;28;20092;-58
2023/10/29 12:06:39;;;;;;;4.25;3.65;;;;;;;;;;5047940;28;20087;-57
2023/10/29 12:09:21;;;;;;;4.78;1.13;;;;;;;;;;5043466;28;20082;-58
2023/10/29 12:11:48;;;;;;;19.65;18.38;;;;;;;;;;5037719;28;20330;-58
2023/10/29 12:14:14;;;;;;;6.60;3.40;;;;;;;;;;5038081;28;20078;-58
2023/10/29 12:16:39;;;;;;;8.57;5.10;;;;;;;;;;5044187;28;20028;-58
2023/10/29 12:19:05;;;;;;;6.13;5.50;;;;;;;;;;5044827;28;20014;-59
2023/10/29 12:21:30;;;;;;;17.03;15.90;;;;;;;;;;5039762;28;20364;-57
2023/10/29 12:23:57;;;;;;;20.67;19.33;;;;;;;;;;5041337;28;20052;-57
2023/10/29 12:26:22;;;;;;;4.65;2.40;;;;;;;;;;5048787;28;20439;-57
2023/10/29 12:28:49;;;;;;;38.65;36.47;;;;;;;;;;5047763;28;20044;-58
2023/10/29 12:31:27;;;;;;;4.55;1.80;;;;;;;;;;5048978;28;20448;-59
2023/10/29 12:33:52;;;;;;;;;;;;;;;;;;5046833;28;20025;-59
2023/10/29 12:36:17;;;;;;;4.45;1.30;;;;;;;;;;5041673;28;19913;-58
2023/10/29 12:38:43;;;;;;;18.03;16.90;;;;;;;;;;5036746;28;20013;-58
2023/10/29 12:41:13;;;;;;;8.38;7.63;;;;;;;;;;5035758;28;20035;-59
2023/10/29 12:43:42;;;;;;;5.70;4.85;;;;;;;;;;5045791;28;20036;-58
2023/10/29 12:46:09;;;;;;;4.40;1.30;;;;;;;;;;5047755;28;20112;-58
2023/10/29 12:48:36;;;;;;;4.63;1.85;;;;;;;;;;5039728;28;20089;-57
2023/10/29 12:51:02;;;;;;;10.52;9.80;;;;;;;;;;5047187;28;20420;-58
2023/10/29 12:53:28;;;;;;;7.60;6.80;;;;;;;;;;5041475;28;20086;-58
2023/10/29 12:55:54;;;;;;;11.77;10.82;;;;;;;;;;5041206;28;20028;-58
2023/10/29 12:58:20;;;;;;;4.07;1.40;;;;;;;;;;5048328;28;20029;-60
2023/10/29 13:00:46;;;;;;;30.92;29.13;;;;;;;;;;5047818;28;20017;-58
2023/10/29 13:03:11;;;;;;;9.80;8.90;;;;;;;;;;5057819;28;20488;-59
2023/10/29 13:05:37;;;;;;;7.27;6.27;;;;;;;;;;5046896;28;20047;-58
2023/10/29 13:08:04;;;;;;;5.60;3.53;;;;;;;;;;5047875;28;20083;-58
2023/10/29 13:10:29;;;;;;;5.53;4.90;;;;;;;;;;5043522;28;20059;-58
2023/10/29 13:12:55;;;;;;;7.17;6.27;;;;;;;;;;5047031;28;20052;-59
2023/10/29 13:15:20;;;;;;;5.97;1.85;;;;;;;;;;5048058;28;20052;-58
2023/10/29 13:17:46;;;;;;;6.67;4.93;;;;;;;;;;5029792;28;20064;-57
2023/10/29 13:20:11;;;;;;;6.43;5.00;;;;;;;;;;5026042;28;20087;-58
2023/10/29 13:22:39;;;;;;;5.18;3.53;;;;;;;;;;5036941;28;20032;-59
2023/10/29 13:25:06;;;;;;;15.73;14.48;;;;;;;;;;5047810;28;20047;-57
2023/10/29 13:27:31;;;;;;;6.70;4.55;;;;;;;;;;5051229;28;20021;-59
2023/10/29 13:29:57;;;;;;;19.10;17.73;;;;;;;;;;5044371;28;20163;-58
2023/10/29 13:32:22;;;;;;;9.50;8.70;;;;;;;;;;5042169;28;20438;-58
2023/10/29 13:34:48;;;;;;;21.33;19.92;;;;;;;;;;5036785;28;20075;-58
2023/10/29 13:37:14;;;;;;;6.53;5.95;;;;;;;;;;5044972;28;20397;-58
2023/10/29 13:39:39;;;;;;;7.63;6.80;;;;;;;;;;5039339;28;20035;-58
2023/10/29 13:42:05;;;;;;;5.95;2.13;;;;;;;;;;5040829;28;20094;-59
2023/10/29 13:44:30;;;;;;;6.05;2.90;;;;;;;;;;5038562;28;20013;-58
2023/10/29 13:46:55;;;;;;;13.47;12.50;;;;;;;;;;5036546;28;20496;-58
2023/10/29 13:49:21;;;;;;;6.00;2.83;;;;;;;;;;5043156;28;20040;-58
2023/10/29 13:51:46;;;;;;;7.00;2.63;;;;;;;;;;5040868;28;20876;-57
2023/10/29 13:54:11;;;;;;;6.22;3.92;;;;;;;;;;5040738;28;20029;-59
2023/10/29 13:56:37;;;;;;;10.87;9.43;;;;;;;;;;5037692;28;20027;-58
2023/10/29 13:59:02;;;;;;;6.97;5.03;;;;;;;;;;5043926;28;20074;-57
2023/10/29 14:01:27;;;;;;;5.67;2.83;;;;;;;;;;5039657;28;20530;-58
2023/10/29 14:03:55;;;;;;;10.50;9.70;;;;;;;;;;5045113;28;20076;-58
2023/10/29 14:06:20;;;;;;;7.32;6.00;;;;;;;;;;5041181;28;20021;-57
2023/10/29 14:08:45;;;;;;;6.87;5.80;;;;;;;;;;5042089;28;20388;-57
2023/10/29 14:11:11;;;;;;;6.07;2.20;;;;;;;;;;5036967;28;20104;-58
2023/10/29 14:13:36;;;;;;;22.30;20.80;;;;;;;;;;5043436;28;20036;-59
2023/10/29 14:16:02;;;;;;;6.47;4.45;;;;;;;;;;5036953;28;20017;-56
2023/10/29 14:18:28;;;;;;;8.93;8.10;;;;;;;;;;5043436;28;20029;-57
2023/10/29 14:20:54;;;;;;;15.77;14.52;;;;;;;;;;5038775;28;20034;-57
2023/10/29 14:23:19;;;;;;;6.93;2.97;;;;;;;;;;5036232;28;20036;-57
2023/10/29 14:25:46;;;;;;;25.25;23.55;;;;;;;;;;5044873;28;20021;-57
2023/10/29 14:28:11;;;;;;;10.38;9.48;;;;;;;;;;5052408;28;20021;-57
2023/10/29 14:30:37;;;;;;;12.03;11.13;;;;;;;;;;5047170;28;20207;-58